sensor_id;sensor_type;location;lat;lon;timestamp;P1;durP1;ratioP1;P2;durP2;ratioP2
57111;SDS011;42992;49.084;19.300;2022-09-14T00:03:38;6.80;;;4.68;;
57111;SDS011;42992;49.084;19.300;2022-09-14T00:06:05;7.13;;;3.92;;
57111;SDS011;42992;49.084;19.300;2022-09-14T00:08:31;5.88;;;4.18;;
57111;SDS011;42992;49.084;19.300;2022-09-14T00:10:56;8.18;;;4.82;;
57111;SDS011;42992;49.084;19.300;2022-09-14T00:16:26;5.80;;;4.45;;
57111;SDS011;42992;49.084;19.300;2022-09-14T00:18:55;7.45;;;4.65;;
57111;SDS011;42992;49.084;19.300;2022-09-14T00:21:29;7.43;;;4.18;;
57111;SDS011;42992;49.084;19.300;2022-09-14T00:23:54;8.77;;;4.30;;
57111;SDS011;42992;49.084;19.300;2022-09-14T00:26:27;10.27;;;4.47;;
57111;SDS011;42992;49.084;19.300;2022-09-14T00:28:55;5.32;;;3.92;;
57111;SDS011;42992;49.084;19.300;2022-09-14T00:31:21;10.27;;;4.55;;
57111;SDS011;42992;49.084;19.300;2022-09-14T00:33:50;7.10;;;4.38;;
57111;SDS011;42992;49.084;19.300;2022-09-14T00:36:17;6.97;;;4.55;;
57111;SDS011;42992;49.084;19.300;2022-09-14T00:38:51;7.80;;;4.10;;
57111;SDS011;42992;49.084;19.300;2022-09-14T00:41:21;6.50;;;3.90;;
57111;SDS011;42992;49.084;19.300;2022-09-14T00:46:33;5.72;;;4.07;;
57111;SDS011;42992;49.084;19.300;2022-09-14T00:49:02;7.28;;;4.55;;
57111;SDS011;42992;49.084;19.300;2022-09-14T00:51:29;7.65;;;4.60;;
57111;SDS011;42992;49.084;19.300;2022-09-14T00:54:04;8.38;;;5.32;;
57111;SDS011;42992;49.084;19.300;2022-09-14T00:56:32;9.77;;;5.60;;
57111;SDS011;42992;49.084;19.300;2022-09-14T00:59:00;9.30;;;4.22;;
57111;SDS011;42992;49.084;19.300;2022-09-14T01:01:28;8.10;;;4.82;;
57111;SDS011;42992;49.084;19.300;2022-09-14T01:03:54;8.30;;;4.18;;
57111;SDS011;42992;49.084;19.300;2022-09-14T01:09:04;7.35;;;4.15;;
57111;SDS011;42992;49.084;19.300;2022-09-14T01:11:50;10.07;;;4.65;;
57111;SDS011;42992;49.084;19.300;2022-09-14T01:17:28;7.05;;;4.60;;
57111;SDS011;42992;49.084;19.300;2022-09-14T01:22:23;9.32;;;4.72;;
57111;SDS011;42992;49.084;19.300;2022-09-14T01:24:54;11.07;;;4.55;;
57111;SDS011;42992;49.084;19.300;2022-09-14T01:30:23;8.38;;;4.10;;
57111;SDS011;42992;49.084;19.300;2022-09-14T01:50:55;9.98;;;4.80;;
57111;SDS011;42992;49.084;19.300;2022-09-14T01:53:26;7.05;;;4.75;;
57111;SDS011;42992;49.084;19.300;2022-09-14T01:56:02;7.20;;;4.60;;
57111;SDS011;42992;49.084;19.300;2022-09-14T02:00:56;7.05;;;4.78;;
57111;SDS011;42992;49.084;19.300;2022-09-14T02:03:25;7.93;;;5.47;;
57111;SDS011;42992;49.084;19.300;2022-09-14T02:08:26;8.05;;;4.63;;
57111;SDS011;42992;49.084;19.300;2022-09-14T02:10:52;7.20;;;4.65;;
57111;SDS011;42992;49.084;19.300;2022-09-14T02:13:18;8.98;;;4.28;;
57111;SDS011;42992;49.084;19.300;2022-09-14T02:15:43;7.90;;;4.70;;
57111;SDS011;42992;49.084;19.300;2022-09-14T02:18:09;6.15;;;4.30;;
57111;SDS011;42992;49.084;19.300;2022-09-14T02:23:16;8.90;;;4.60;;
57111;SDS011;42992;49.084;19.300;2022-09-14T02:25:41;7.15;;;4.43;;
57111;SDS011;42992;49.084;19.300;2022-09-14T02:28:09;6.93;;;4.43;;
57111;SDS011;42992;49.084;19.300;2022-09-14T02:33:27;7.15;;;4.32;;
57111;SDS011;42992;49.084;19.300;2022-09-14T02:38:33;7.22;;;4.55;;
57111;SDS011;42992;49.084;19.300;2022-09-14T02:46:35;9.18;;;4.55;;
57111;SDS011;42992;49.084;19.300;2022-09-14T02:51:38;7.70;;;4.85;;
57111;SDS011;42992;49.084;19.300;2022-09-14T02:54:07;8.25;;;4.65;;
57111;SDS011;42992;49.084;19.300;2022-09-14T02:56:40;8.43;;;4.63;;
57111;SDS011;42992;49.084;19.300;2022-09-14T02:59:09;8.85;;;5.40;;
57111;SDS011;42992;49.084;19.300;2022-09-14T03:01:34;10.23;;;5.53;;
57111;SDS011;42992;49.084;19.300;2022-09-14T03:04:00;10.15;;;5.50;;
57111;SDS011;42992;49.084;19.300;2022-09-14T03:06:25;11.57;;;6.05;;
57111;SDS011;42992;49.084;19.300;2022-09-14T03:08:51;12.27;;;5.40;;
57111;SDS011;42992;49.084;19.300;2022-09-14T03:11:16;8.25;;;5.60;;
57111;SDS011;42992;49.084;19.300;2022-09-14T03:13:41;11.43;;;5.60;;
57111;SDS011;42992;49.084;19.300;2022-09-14T03:16:08;11.00;;;5.93;;
57111;SDS011;42992;49.084;19.300;2022-09-14T03:18:34;10.88;;;6.20;;
57111;SDS011;42992;49.084;19.300;2022-09-14T03:21:06;10.23;;;7.20;;
57111;SDS011;42992;49.084;19.300;2022-09-14T03:26:08;19.05;;;9.60;;
57111;SDS011;42992;49.084;19.300;2022-09-14T03:28:33;16.67;;;8.90;;
57111;SDS011;42992;49.084;19.300;2022-09-14T03:30:59;14.13;;;8.30;;
57111;SDS011;42992;49.084;19.300;2022-09-14T03:33:25;15.35;;;7.05;;
57111;SDS011;42992;49.084;19.300;2022-09-14T03:35:50;13.30;;;7.07;;
57111;SDS011;42992;49.084;19.300;2022-09-14T03:51:11;11.48;;;8.38;;
57111;SDS011;42992;49.084;19.300;2022-09-14T03:53:37;11.82;;;8.50;;
57111;SDS011;42992;49.084;19.300;2022-09-14T03:56:08;15.13;;;8.57;;
57111;SDS011;42992;49.084;19.300;2022-09-14T03:58:37;14.05;;;7.80;;
57111;SDS011;42992;49.084;19.300;2022-09-14T04:03:38;10.65;;;7.97;;
57111;SDS011;42992;49.084;19.300;2022-09-14T04:06:04;16.40;;;9.93;;
57111;SDS011;42992;49.084;19.300;2022-09-14T04:08:30;14.00;;;8.70;;
57111;SDS011;42992;49.084;19.300;2022-09-14T04:10:55;11.45;;;8.15;;
57111;SDS011;42992;49.084;19.300;2022-09-14T04:13:21;16.60;;;8.50;;
57111;SDS011;42992;49.084;19.300;2022-09-14T04:15:58;12.30;;;9.02;;
57111;SDS011;42992;49.084;19.300;2022-09-14T04:18:24;10.63;;;7.72;;
57111;SDS011;42992;49.084;19.300;2022-09-14T04:20:56;14.98;;;7.95;;
57111;SDS011;42992;49.084;19.300;2022-09-14T04:23:22;12.25;;;8.07;;
57111;SDS011;42992;49.084;19.300;2022-09-14T04:25:47;15.80;;;7.68;;
57111;SDS011;42992;49.084;19.300;2022-09-14T04:28:13;15.98;;;8.40;;
57111;SDS011;42992;49.084;19.300;2022-09-14T04:30:38;14.35;;;8.48;;
57111;SDS011;42992;49.084;19.300;2022-09-14T04:33:03;15.35;;;7.95;;
57111;SDS011;42992;49.084;19.300;2022-09-14T04:35:29;12.75;;;8.65;;
57111;SDS011;42992;49.084;19.300;2022-09-14T04:37:55;20.55;;;9.55;;
57111;SDS011;42992;49.084;19.300;2022-09-14T04:40:21;15.10;;;9.77;;
57111;SDS011;42992;49.084;19.300;2022-09-14T04:42:46;19.50;;;9.98;;
57111;SDS011;42992;49.084;19.300;2022-09-14T04:45:12;18.92;;;10.20;;
57111;SDS011;42992;49.084;19.300;2022-09-14T04:47:37;16.77;;;9.52;;
57111;SDS011;42992;49.084;19.300;2022-09-14T04:50:03;17.20;;;9.25;;
57111;SDS011;42992;49.084;19.300;2022-09-14T04:54:59;22.23;;;9.82;;
57111;SDS011;42992;49.084;19.300;2022-09-14T04:57:25;15.27;;;9.88;;
57111;SDS011;42992;49.084;19.300;2022-09-14T05:02:26;17.10;;;9.20;;
57111;SDS011;42992;49.084;19.300;2022-09-14T05:04:51;18.98;;;10.23;;
57111;SDS011;42992;49.084;19.300;2022-09-14T05:09:52;11.80;;;7.53;;
57111;SDS011;42992;49.084;19.300;2022-09-14T05:14:52;16.58;;;6.93;;
57111;SDS011;42992;49.084;19.300;2022-09-14T05:17:17;10.10;;;5.60;;
57111;SDS011;42992;49.084;19.300;2022-09-14T05:19:43;11.73;;;6.88;;
57111;SDS011;42992;49.084;19.300;2022-09-14T05:27:18;13.05;;;7.00;;
57111;SDS011;42992;49.084;19.300;2022-09-14T05:29:43;12.60;;;7.07;;
57111;SDS011;42992;49.084;19.300;2022-09-14T05:32:09;15.77;;;7.30;;
57111;SDS011;42992;49.084;19.300;2022-09-14T05:34:34;15.05;;;6.82;;
57111;SDS011;42992;49.084;19.300;2022-09-14T05:36:59;17.88;;;7.32;;
57111;SDS011;42992;49.084;19.300;2022-09-14T05:39:26;10.60;;;6.78;;
57111;SDS011;42992;49.084;19.300;2022-09-14T05:41:51;11.90;;;6.78;;
57111;SDS011;42992;49.084;19.300;2022-09-14T05:44:17;12.18;;;6.57;;
57111;SDS011;42992;49.084;19.300;2022-09-14T05:46:42;14.15;;;6.80;;
57111;SDS011;42992;49.084;19.300;2022-09-14T05:49:07;17.17;;;6.22;;
57111;SDS011;42992;49.084;19.300;2022-09-14T05:51:33;10.10;;;6.05;;
57111;SDS011;42992;49.084;19.300;2022-09-14T05:53:58;14.30;;;6.10;;
57111;SDS011;42992;49.084;19.300;2022-09-14T05:56:25;10.48;;;6.10;;
57111;SDS011;42992;49.084;19.300;2022-09-14T05:58:51;15.38;;;6.07;;
57111;SDS011;42992;49.084;19.300;2022-09-14T06:01:18;19.63;;;7.60;;
57111;SDS011;42992;49.084;19.300;2022-09-14T06:14:06;11.18;;;5.65;;
57111;SDS011;42992;49.084;19.300;2022-09-14T06:39:47;13.93;;;6.72;;
57111;SDS011;42992;49.084;19.300;2022-09-14T06:42:12;10.57;;;6.47;;
57111;SDS011;42992;49.084;19.300;2022-09-14T06:44:38;11.75;;;6.00;;
57111;SDS011;42992;49.084;19.300;2022-09-14T06:47:04;14.48;;;6.40;;
57111;SDS011;42992;49.084;19.300;2022-09-14T06:49:30;11.65;;;6.45;;
57111;SDS011;42992;49.084;19.300;2022-09-14T06:51:55;11.68;;;6.13;;
57111;SDS011;42992;49.084;19.300;2022-09-14T06:54:21;9.18;;;5.72;;
57111;SDS011;42992;49.084;19.300;2022-09-14T06:56:47;12.38;;;6.20;;
57111;SDS011;42992;49.084;19.300;2022-09-14T06:59:13;12.25;;;7.47;;
57111;SDS011;42992;49.084;19.300;2022-09-14T07:01:39;16.38;;;8.15;;
57111;SDS011;42992;49.084;19.300;2022-09-14T07:04:05;16.63;;;8.73;;
57111;SDS011;42992;49.084;19.300;2022-09-14T07:06:31;13.90;;;10.23;;
57111;SDS011;42992;49.084;19.300;2022-09-14T07:08:57;15.25;;;10.85;;
57111;SDS011;42992;49.084;19.300;2022-09-14T07:11:23;13.30;;;9.95;;
57111;SDS011;42992;49.084;19.300;2022-09-14T07:13:52;18.98;;;9.82;;
57111;SDS011;42992;49.084;19.300;2022-09-14T07:16:26;16.83;;;9.60;;
57111;SDS011;42992;49.084;19.300;2022-09-14T07:18:55;15.13;;;10.52;;
57111;SDS011;42992;49.084;19.300;2022-09-14T07:21:20;12.60;;;8.63;;
57111;SDS011;42992;49.084;19.300;2022-09-14T07:23:46;18.55;;;8.70;;
57111;SDS011;42992;49.084;19.300;2022-09-14T07:28:37;14.23;;;8.73;;
57111;SDS011;42992;49.084;19.300;2022-09-14T07:31:04;10.52;;;8.25;;
57111;SDS011;42992;49.084;19.300;2022-09-14T07:33:29;11.38;;;8.38;;
57111;SDS011;42992;49.084;19.300;2022-09-14T07:36:02;12.25;;;9.00;;
57111;SDS011;42992;49.084;19.300;2022-09-14T07:38:28;16.73;;;7.93;;
57111;SDS011;42992;49.084;19.300;2022-09-14T07:40:56;15.05;;;8.27;;
57111;SDS011;42992;49.084;19.300;2022-09-14T07:43:22;13.65;;;7.10;;
57111;SDS011;42992;49.084;19.300;2022-09-14T07:45:47;12.65;;;7.22;;
57111;SDS011;42992;49.084;19.300;2022-09-14T07:48:12;9.32;;;6.80;;
57111;SDS011;42992;49.084;19.300;2022-09-14T07:59:34;13.10;;;7.70;;
57111;SDS011;42992;49.084;19.300;2022-09-14T08:01:59;13.63;;;7.55;;
57111;SDS011;42992;49.084;19.300;2022-09-14T08:04:25;11.50;;;7.00;;
57111;SDS011;42992;49.084;19.300;2022-09-14T08:06:50;11.98;;;7.15;;
57111;SDS011;42992;49.084;19.300;2022-09-14T08:09:15;14.75;;;6.70;;
57111;SDS011;42992;49.084;19.300;2022-09-14T08:11:40;12.13;;;6.72;;
57111;SDS011;42992;49.084;19.300;2022-09-14T08:14:07;15.00;;;7.25;;
57111;SDS011;42992;49.084;19.300;2022-09-14T08:16:34;14.25;;;10.23;;
57111;SDS011;42992;49.084;19.300;2022-09-14T08:19:00;8.80;;;6.40;;
57111;SDS011;42992;49.084;19.300;2022-09-14T08:21:26;10.07;;;6.63;;
57111;SDS011;42992;49.084;19.300;2022-09-14T08:23:52;12.43;;;7.05;;
57111;SDS011;42992;49.084;19.300;2022-09-14T08:26:18;12.15;;;7.40;;
57111;SDS011;42992;49.084;19.300;2022-09-14T08:28:44;14.75;;;6.80;;
57111;SDS011;42992;49.084;19.300;2022-09-14T08:31:11;10.75;;;6.55;;
57111;SDS011;42992;49.084;19.300;2022-09-14T08:33:37;9.32;;;6.43;;
57111;SDS011;42992;49.084;19.300;2022-09-14T08:36:03;10.45;;;5.88;;
57111;SDS011;42992;49.084;19.300;2022-09-14T08:38:28;14.25;;;6.82;;
57111;SDS011;42992;49.084;19.300;2022-09-14T08:40:54;13.07;;;6.85;;
57111;SDS011;42992;49.084;19.300;2022-09-14T08:43:20;14.48;;;7.18;;
57111;SDS011;42992;49.084;19.300;2022-09-14T08:45:47;17.45;;;9.02;;
57111;SDS011;42992;49.084;19.300;2022-09-14T08:48:19;12.52;;;6.50;;
57111;SDS011;42992;49.084;19.300;2022-09-14T08:50:46;13.43;;;6.40;;
57111;SDS011;42992;49.084;19.300;2022-09-14T08:53:11;9.55;;;6.53;;
57111;SDS011;42992;49.084;19.300;2022-09-14T08:55:41;11.48;;;6.90;;
57111;SDS011;42992;49.084;19.300;2022-09-14T09:00:56;12.95;;;6.88;;
57111;SDS011;42992;49.084;19.300;2022-09-14T09:03:29;13.52;;;7.75;;
57111;SDS011;42992;49.084;19.300;2022-09-14T09:06:04;12.52;;;7.18;;
57111;SDS011;42992;49.084;19.300;2022-09-14T09:10:57;15.68;;;7.68;;
57111;SDS011;42992;49.084;19.300;2022-09-14T09:13:24;13.18;;;7.47;;
57111;SDS011;42992;49.084;19.300;2022-09-14T09:15:51;14.18;;;6.32;;
57111;SDS011;42992;49.084;19.300;2022-09-14T09:21:06;12.98;;;6.88;;
57111;SDS011;42992;49.084;19.300;2022-09-14T09:23:32;13.68;;;6.13;;
57111;SDS011;42992;49.084;19.300;2022-09-14T09:26:21;12.30;;;5.90;;
57111;SDS011;42992;49.084;19.300;2022-09-14T09:28:48;10.70;;;6.05;;
57111;SDS011;42992;49.084;19.300;2022-09-14T09:31:14;11.45;;;6.20;;
57111;SDS011;42992;49.084;19.300;2022-09-14T09:33:40;10.43;;;6.20;;
57111;SDS011;42992;49.084;19.300;2022-09-14T09:36:06;15.50;;;6.40;;
57111;SDS011;42992;49.084;19.300;2022-09-14T09:38:32;11.52;;;6.88;;
57111;SDS011;42992;49.084;19.300;2022-09-14T09:40:59;9.65;;;6.68;;
57111;SDS011;42992;49.084;19.300;2022-09-14T09:43:25;13.00;;;6.72;;
57111;SDS011;42992;49.084;19.300;2022-09-14T09:46:03;15.27;;;9.35;;
57111;SDS011;42992;49.084;19.300;2022-09-14T09:48:37;16.50;;;8.68;;
57111;SDS011;42992;49.084;19.300;2022-09-14T09:51:06;13.63;;;8.40;;
57111;SDS011;42992;49.084;19.300;2022-09-14T09:53:32;13.13;;;8.07;;
57111;SDS011;42992;49.084;19.300;2022-09-14T09:55:58;11.07;;;7.55;;
57111;SDS011;42992;49.084;19.300;2022-09-14T09:58:31;14.02;;;7.85;;
57111;SDS011;42992;49.084;19.300;2022-09-14T10:00:58;11.32;;;8.32;;
57111;SDS011;42992;49.084;19.300;2022-09-14T10:03:28;9.88;;;7.75;;
57111;SDS011;42992;49.084;19.300;2022-09-14T10:06:04;15.40;;;8.50;;
57111;SDS011;42992;49.084;19.300;2022-09-14T10:08:31;12.93;;;7.63;;
57111;SDS011;42992;49.084;19.300;2022-09-14T10:10:59;10.55;;;7.75;;
57111;SDS011;42992;49.084;19.300;2022-09-14T10:13:34;9.98;;;7.43;;
57111;SDS011;42992;49.084;19.300;2022-09-14T10:16:14;11.57;;;7.25;;
57111;SDS011;42992;49.084;19.300;2022-09-14T10:18:47;12.25;;;7.07;;
57111;SDS011;42992;49.084;19.300;2022-09-14T10:21:15;10.98;;;7.10;;
57111;SDS011;42992;49.084;19.300;2022-09-14T10:23:40;11.80;;;7.00;;
57111;SDS011;42992;49.084;19.300;2022-09-14T10:33:32;10.75;;;7.57;;
57111;SDS011;42992;49.084;19.300;2022-09-14T10:45:59;8.70;;;6.97;;
57111;SDS011;42992;49.084;19.300;2022-09-14T10:48:29;12.00;;;6.75;;
57111;SDS011;42992;49.084;19.300;2022-09-14T10:51:20;11.18;;;7.18;;
57111;SDS011;42992;49.084;19.300;2022-09-14T11:13:01;13.50;;;8.10;;
57111;SDS011;42992;49.084;19.300;2022-09-14T11:23:08;10.07;;;7.45;;
57111;SDS011;42992;49.084;19.300;2022-09-14T11:28:14;14.93;;;7.18;;
57111;SDS011;42992;49.084;19.300;2022-09-14T11:31:03;10.15;;;7.85;;
57111;SDS011;42992;49.084;19.300;2022-09-14T11:35:52;9.45;;;7.70;;
57111;SDS011;42992;49.084;19.300;2022-09-14T11:38:20;10.50;;;7.88;;
57111;SDS011;42992;49.084;19.300;2022-09-14T11:40:55;11.77;;;7.95;;
57111;SDS011;42992;49.084;19.300;2022-09-14T11:48:41;14.60;;;9.40;;
57111;SDS011;42992;49.084;19.300;2022-09-14T11:51:16;15.88;;;8.88;;
57111;SDS011;42992;49.084;19.300;2022-09-14T11:53:43;20.38;;;11.32;;
57111;SDS011;42992;49.084;19.300;2022-09-14T11:56:52;14.48;;;11.13;;
57111;SDS011;42992;49.084;19.300;2022-09-14T11:58:58;13.38;;;8.23;;
57111;SDS011;42992;49.084;19.300;2022-09-14T12:01:37;16.05;;;8.63;;
57111;SDS011;42992;49.084;19.300;2022-09-14T12:04:07;16.58;;;9.07;;
57111;SDS011;42992;49.084;19.300;2022-09-14T12:11:43;11.05;;;8.77;;
57111;SDS011;42992;49.084;19.300;2022-09-14T12:14:54;12.73;;;9.38;;
57111;SDS011;42992;49.084;19.300;2022-09-14T12:19:19;13.20;;;9.55;;
57111;SDS011;42992;49.084;19.300;2022-09-14T12:21:45;12.40;;;9.18;;
57111;SDS011;42992;49.084;19.300;2022-09-14T12:24:13;10.98;;;9.50;;
57111;SDS011;42992;49.084;19.300;2022-09-14T12:26:39;11.95;;;9.60;;
57111;SDS011;42992;49.084;19.300;2022-09-14T12:29:05;14.10;;;9.30;;
57111;SDS011;42992;49.084;19.300;2022-09-14T12:34:16;11.63;;;9.00;;
57111;SDS011;42992;49.084;19.300;2022-09-14T12:39:24;10.15;;;8.35;;
57111;SDS011;42992;49.084;19.300;2022-09-14T12:44:30;12.40;;;9.20;;
57111;SDS011;42992;49.084;19.300;2022-09-14T12:46:55;11.75;;;9.23;;
57111;SDS011;42992;49.084;19.300;2022-09-14T12:49:23;11.90;;;9.10;;
57111;SDS011;42992;49.084;19.300;2022-09-14T12:51:50;11.95;;;8.18;;
57111;SDS011;42992;49.084;19.300;2022-09-14T12:57:03;14.60;;;9.45;;
57111;SDS011;42992;49.084;19.300;2022-09-14T13:05:00;20.73;;;14.38;;
57111;SDS011;42992;49.084;19.300;2022-09-14T13:07:29;14.35;;;12.18;;
57111;SDS011;42992;49.084;19.300;2022-09-14T13:09:56;15.05;;;12.13;;
57111;SDS011;42992;49.084;19.300;2022-09-14T13:12:42;15.48;;;12.90;;
57111;SDS011;42992;49.084;19.300;2022-09-14T13:15:27;12.93;;;10.45;;
57111;SDS011;42992;49.084;19.300;2022-09-14T13:20:19;13.20;;;10.13;;
57111;SDS011;42992;49.084;19.300;2022-09-14T13:22:45;11.82;;;9.57;;
57111;SDS011;42992;49.084;19.300;2022-09-14T13:28:12;14.68;;;12.13;;
57111;SDS011;42992;49.084;19.300;2022-09-14T13:30:38;14.10;;;12.40;;
57111;SDS011;42992;49.084;19.300;2022-09-14T13:33:05;14.73;;;13.07;;
57111;SDS011;42992;49.084;19.300;2022-09-14T13:35:33;17.38;;;12.85;;
57111;SDS011;42992;49.084;19.300;2022-09-14T13:38:08;17.60;;;13.18;;
57111;SDS011;42992;49.084;19.300;2022-09-14T13:40:34;17.05;;;12.80;;
57111;SDS011;42992;49.084;19.300;2022-09-14T13:42:59;17.20;;;14.90;;
57111;SDS011;42992;49.084;19.300;2022-09-14T13:45:24;15.48;;;13.25;;
57111;SDS011;42992;49.084;19.300;2022-09-14T13:47:50;14.40;;;12.25;;
57111;SDS011;42992;49.084;19.300;2022-09-14T13:50:16;14.25;;;11.77;;
57111;SDS011;42992;49.084;19.300;2022-09-14T13:52:41;15.25;;;12.32;;
57111;SDS011;42992;49.084;19.300;2022-09-14T13:57:35;14.40;;;10.70;;
57111;SDS011;42992;49.084;19.300;2022-09-14T14:02:32;14.93;;;9.57;;
57111;SDS011;42992;49.084;19.300;2022-09-14T14:04:58;12.30;;;9.77;;
57111;SDS011;42992;49.084;19.300;2022-09-14T14:07:25;12.50;;;10.25;;
57111;SDS011;42992;49.084;19.300;2022-09-14T14:09:53;12.30;;;10.05;;
57111;SDS011;42992;49.084;19.300;2022-09-14T14:12:40;12.73;;;9.43;;
57111;SDS011;42992;49.084;19.300;2022-09-14T14:15:05;12.82;;;9.40;;
57111;SDS011;42992;49.084;19.300;2022-09-14T14:17:49;23.83;;;13.60;;
57111;SDS011;42992;49.084;19.300;2022-09-14T14:23:13;13.27;;;10.48;;
57111;SDS011;42992;49.084;19.300;2022-09-14T14:25:41;14.98;;;11.63;;
57111;SDS011;42992;49.084;19.300;2022-09-14T14:28:18;19.58;;;12.82;;
57111;SDS011;42992;49.084;19.300;2022-09-14T14:30:49;16.92;;;13.15;;
57111;SDS011;42992;49.084;19.300;2022-09-14T14:33:15;16.45;;;12.70;;
57111;SDS011;42992;49.084;19.300;2022-09-14T14:35:46;16.88;;;13.52;;
57111;SDS011;42992;49.084;19.300;2022-09-14T14:38:12;16.38;;;13.50;;
57111;SDS011;42992;49.084;19.300;2022-09-14T14:40:38;17.13;;;13.45;;
57111;SDS011;42992;49.084;19.300;2022-09-14T14:43:08;16.65;;;13.40;;
57111;SDS011;42992;49.084;19.300;2022-09-14T14:45:34;14.95;;;12.82;;
57111;SDS011;42992;49.084;19.300;2022-09-14T14:47:59;17.20;;;13.95;;
57111;SDS011;42992;49.084;19.300;2022-09-14T14:50:26;15.93;;;13.25;;
57111;SDS011;42992;49.084;19.300;2022-09-14T14:52:53;15.73;;;12.50;;
57111;SDS011;42992;49.084;19.300;2022-09-14T14:55:19;18.23;;;13.43;;
57111;SDS011;42992;49.084;19.300;2022-09-14T14:57:50;17.27;;;14.30;;
57111;SDS011;42992;49.084;19.300;2022-09-14T15:00:20;17.15;;;15.02;;
57111;SDS011;42992;49.084;19.300;2022-09-14T15:02:49;18.52;;;15.48;;
57111;SDS011;42992;49.084;19.300;2022-09-14T15:05:15;19.27;;;14.82;;
57111;SDS011;42992;49.084;19.300;2022-09-14T15:07:42;14.05;;;12.55;;
57111;SDS011;42992;49.084;19.300;2022-09-14T15:10:08;14.80;;;12.23;;
57111;SDS011;42992;49.084;19.300;2022-09-14T15:12:38;15.95;;;13.70;;
57111;SDS011;42992;49.084;19.300;2022-09-14T15:15:04;15.48;;;12.43;;
57111;SDS011;42992;49.084;19.300;2022-09-14T15:17:29;14.27;;;12.57;;
57111;SDS011;42992;49.084;19.300;2022-09-14T15:19:57;16.60;;;12.90;;
57111;SDS011;42992;49.084;19.300;2022-09-14T15:22:23;14.23;;;12.05;;
57111;SDS011;42992;49.084;19.300;2022-09-14T15:24:49;18.05;;;13.55;;
57111;SDS011;42992;49.084;19.300;2022-09-14T15:27:14;14.77;;;12.68;;
57111;SDS011;42992;49.084;19.300;2022-09-14T15:29:39;15.13;;;13.27;;
57111;SDS011;42992;49.084;19.300;2022-09-14T15:32:04;17.15;;;14.02;;
57111;SDS011;42992;49.084;19.300;2022-09-14T15:34:30;17.92;;;15.02;;
57111;SDS011;42992;49.084;19.300;2022-09-14T15:36:55;16.98;;;14.88;;
57111;SDS011;42992;49.084;19.300;2022-09-14T15:39:25;17.50;;;15.00;;
57111;SDS011;42992;49.084;19.300;2022-09-14T15:41:53;16.20;;;14.48;;
57111;SDS011;42992;49.084;19.300;2022-09-14T15:44:28;17.65;;;15.13;;
57111;SDS011;42992;49.084;19.300;2022-09-14T15:47:13;29.13;;;23.80;;
57111;SDS011;42992;49.084;19.300;2022-09-14T15:49:39;35.80;;;30.92;;
57111;SDS011;42992;49.084;19.300;2022-09-14T15:52:07;34.00;;;28.05;;
57111;SDS011;42992;49.084;19.300;2022-09-14T15:57:47;24.33;;;20.92;;
57111;SDS011;42992;49.084;19.300;2022-09-14T16:51:26;18.70;;;15.63;;
57111;SDS011;42992;49.084;19.300;2022-09-14T16:57:51;15.10;;;12.43;;
57111;SDS011;42992;49.084;19.300;2022-09-14T18:46:34;22.90;;;18.88;;
57111;SDS011;42992;49.084;19.300;2022-09-14T21:57:30;20.42;;;17.55;;
57111;SDS011;42992;49.084;19.300;2022-09-14T22:12:50;26.45;;;21.80;;
57111;SDS011;42992;49.084;19.300;2022-09-14T22:15:16;32.47;;;25.58;;
57111;SDS011;42992;49.084;19.300;2022-09-14T22:17:41;24.92;;;21.65;;
57111;SDS011;42992;49.084;19.300;2022-09-14T22:20:07;23.60;;;17.30;;
57111;SDS011;42992;49.084;19.300;2022-09-14T22:25:07;19.55;;;16.05;;
57111;SDS011;42992;49.084;19.300;2022-09-14T22:30:08;19.33;;;16.67;;
57111;SDS011;42992;49.084;19.300;2022-09-14T22:41:21;22.42;;;18.48;;
